Time;durP1;ratioP1;P1;durP2;ratioP2;P2;SDS_P1;SDS_P2;PMS_P1;PMS_P2;Temp;Humidity;BMP_temperature;BMP_pressure;BME280_temperature;BME280_humidity;BME280_pressure;Samples;Min_cycle;Max_cycle;Signal;HPM_P1;HPM_P2
2023/12/26 00:02:00;;;;;;;1.83;0.80;;;;;;;10.85;100.00;99790.44;4972554;28;20418;-65
2023/12/26 00:04:29;;;;;;;1.40;0.77;;;;;;;10.94;100.00;99791.78;4973725;28;20463;-67
2023/12/26 00:07:00;;;;;;;3.00;0.70;;;;;;;11.15;100.00;99774.16;4968927;28;20430;-68
2023/12/26 00:09:29;;;;;;;1.47;0.80;;;;;;;11.28;100.00;99768.53;4971736;28;20406;-68
2023/12/26 00:11:57;;;;;;;2.70;0.90;;;;;;;11.73;100.00;99761.50;4967151;28;20505;-67
2023/12/26 00:14:26;;;;;;;1.83;0.60;;;;;;;12.13;100.00;99755.31;4965942;28;20416;-68
2023/12/26 00:16:55;;;;;;;2.27;1.00;;;;;;;11.70;100.00;99745.72;4970228;28;20504;-66
2023/12/26 00:19:24;;;;;;;1.60;0.80;;;;;;;11.57;100.00;99751.34;4970279;28;20993;-68
2023/12/26 00:21:53;;;;;;;1.63;1.00;;;;;;;11.02;100.00;99756.25;4972795;28;20437;-67
2023/12/26 00:24:23;;;;;;;1.50;0.70;;;;;;;11.28;100.00;99752.28;4981314;28;20442;-68
2023/12/26 00:26:52;;;;;;;1.57;0.70;;;;;;;11.53;100.00;99750.16;4968028;28;20443;-68
2023/12/26 00:29:21;;;;;;;1.00;0.70;;;;;;;11.38;100.00;99747.09;4968906;28;20411;-68
2023/12/26 00:31:49;;;;;;;0.90;0.67;;;;;;;11.19;100.00;99738.25;4969029;28;20419;-67
2023/12/26 00:34:19;;;;;;;0.93;0.63;;;;;;;10.76;100.00;99711.50;4973029;28;20466;-67
2023/12/26 00:36:48;;;;;;;2.80;0.77;;;;;;;10.94;100.00;99713.28;4963141;28;20443;-68
2023/12/26 00:39:16;;;;;;;0.90;0.60;;;;;;;11.01;100.00;99710.47;4967008;28;20411;-68
2023/12/26 00:41:47;;;;;;;1.00;0.60;;;;;;;10.40;100.00;99700.81;4964584;28;20451;-65
2023/12/26 00:44:17;;;;;;;1.10;0.67;;;;;;;10.30;100.00;99701.38;4974420;28;20962;-68
2023/12/26 00:46:46;;;;;;;1.20;0.83;;;;;;;10.38;100.00;99698.31;4974614;28;20434;-68
2023/12/26 00:49:15;;;;;;;1.40;0.70;;;;;;;10.17;100.00;99687.16;4969667;28;20401;-67
2023/12/26 00:51:45;;;;;;;1.80;1.00;;;;;;;10.92;100.00;99692.94;4966327;28;20458;-68
2023/12/26 00:54:14;;;;;;;2.60;1.10;;;;;;;10.94;100.00;99690.81;4970367;28;20444;-67
2023/12/26 00:56:43;;;;;;;2.20;1.20;;;;;;;10.81;100.00;99702.66;4971340;28;20406;-67
2023/12/26 00:59:13;;;;;;;1.33;0.80;;;;;;;11.11;100.00;99695.31;4967114;28;20981;-67
2023/12/26 01:01:42;;;;;;;1.40;0.80;;;;;;;10.66;100.00;99692.28;4967404;28;20440;-67
2023/12/26 01:04:11;;;;;;;1.27;1.17;;;;;;;10.81;100.00;99681.84;4971768;28;20468;-67
2023/12/26 01:06:40;;;;;;;1.87;1.77;;;;;;;10.79;100.00;99678.56;4973930;28;21061;-67
2023/12/26 01:09:09;;;;;;;1.77;1.00;;;;;;;11.15;100.00;99682.13;4963851;28;20433;-66
2023/12/26 01:11:38;;;;;;;1.47;0.70;;;;;;;10.95;100.00;99684.34;4962248;28;20433;-67
2023/12/26 01:14:07;;;;;;;1.20;0.77;;;;;;;10.69;100.00;99661.25;4971103;28;20423;-67
2023/12/26 01:16:37;;;;;;;4.67;0.80;;;;;;;10.35;100.00;99652.00;4968536;28;20469;-67
2023/12/26 01:19:06;;;;;;;2.23;1.17;;;;;;;10.23;100.00;99664.63;4967618;28;20427;-67
2023/12/26 01:21:35;;;;;;;1.50;1.00;;;;;;;10.65;100.00;99669.00;4972226;28;20444;-67
2023/12/26 01:24:05;;;;;;;1.10;0.70;;;;;;;10.98;100.00;99643.28;4969393;28;20473;-66
2023/12/26 01:26:33;;;;;;;1.40;1.00;;;;;;;11.22;100.00;99655.75;4967406;28;20421;-67
2023/12/26 01:29:04;;;;;;;1.33;0.80;;;;;;;11.45;100.00;99652.19;4972530;28;20456;-68
2023/12/26 01:31:37;;;;;;;1.67;0.97;;;;;;;11.41;100.00;99643.72;4971845;28;20439;-67
2023/12/26 01:34:08;;;;;;;1.00;0.60;;;;;;;10.71;100.00;99638.31;4958459;28;20423;-67
2023/12/26 01:36:37;;;;;;;1.20;0.70;;;;;;;10.95;100.00;99638.31;4964701;28;20454;-67
2023/12/26 01:39:07;;;;;;;1.00;0.60;;;;;;;11.24;100.00;99640.06;4957431;28;20472;-67
2023/12/26 01:41:36;;;;;;;1.17;0.87;;;;;;;11.27;100.00;99631.50;4964901;28;20412;-66
2023/12/26 01:44:05;;;;;;;1.20;0.60;;;;;;;11.37;100.00;99634.44;4958811;28;20827;-68
2023/12/26 01:46:37;;;;;;;1.80;0.63;;;;;;;11.32;100.00;99626.19;4960939;28;20449;-67
2023/12/26 01:49:06;;;;;;;5.80;4.23;;;;;;;10.82;100.00;99613.16;4973066;28;20404;-68
2023/12/26 01:51:35;;;;;;;0.90;0.60;;;;;;;10.67;100.00;99618.19;4979739;28;20841;-68
2023/12/26 01:54:04;;;;;;;0.90;0.50;;;;;;;10.63;100.00;99614.31;4968737;28;20455;-67
2023/12/26 01:56:34;;;;;;;1.00;0.70;;;;;;;10.57;100.00;99598.19;4966862;28;20524;-68
2023/12/26 01:59:03;;;;;;;0.90;0.60;;;;;;;10.66;100.00;99594.88;4972661;28;20413;-70
2023/12/26 02:01:33;;;;;;;1.23;0.80;;;;;;;11.00;100.00;99589.72;4973673;28;20410;-69
2023/12/26 02:04:03;;;;;;;1.00;0.60;;;;;;;11.22;100.00;99593.47;4967064;28;20413;-64
2023/12/26 02:06:35;;;;;;;0.87;0.50;;;;;;;11.26;100.00;99586.53;4973084;28;20831;-67
2023/12/26 02:09:10;;;;;;;1.30;0.60;;;;;;;11.12;100.00;99587.84;4962342;28;20441;-67
2023/12/26 02:11:39;;;;;;;0.90;0.50;;;;;;;10.96;100.00;99578.53;4970892;28;20414;-67
2023/12/26 02:14:10;;;;;;;0.80;0.50;;;;;;;11.08;100.00;99584.78;4959254;28;20464;-68
2023/12/26 02:16:42;;;;;;;1.30;0.70;;;;;;;11.09;100.00;99582.88;4963176;28;20451;-67
2023/12/26 02:19:12;;;;;;;0.90;0.50;;;;;;;11.01;100.00;99580.53;4968914;28;20458;-66
2023/12/26 02:21:41;;;;;;;0.80;0.40;;;;;;;11.24;100.00;99562.38;4969116;28;21031;-68
2023/12/26 02:24:11;;;;;;;0.80;0.50;;;;;;;11.18;100.00;99566.03;4962418;28;20489;-68
2023/12/26 02:26:42;;;;;;;0.80;0.50;;;;;;;11.34;100.00;99554.47;4968752;28;21032;-69
2023/12/26 02:29:11;;;;;;;0.90;0.50;;;;;;;11.20;100.00;99546.84;4968038;28;20458;-68
2023/12/26 02:31:43;;;;;;;1.10;0.67;;;;;;;11.53;100.00;99555.13;4965171;28;20427;-68
2023/12/26 02:34:12;;;;;;;1.77;0.80;;;;;;;11.56;100.00;99546.53;4973283;28;20428;-68
2023/12/26 02:36:42;;;;;;;0.90;0.50;;;;;;;11.30;100.00;99555.19;4975017;28;20794;-66
2023/12/26 02:39:13;;;;;;;1.10;0.83;;;;;;;11.12;100.00;99545.34;4981743;28;20405;-68
2023/12/26 02:41:42;;;;;;;1.00;0.40;;;;;;;10.83;100.00;99549.84;4977429;28;20473;-68
2023/12/26 02:44:11;;;;;;;0.90;0.50;;;;;;;10.93;100.00;99548.44;4969463;28;20511;-68
2023/12/26 02:46:40;;;;;;;0.80;0.40;;;;;;;10.81;100.00;99534.91;4962279;28;20440;-67
2023/12/26 02:49:09;;;;;;;0.80;0.50;;;;;;;10.86;100.00;99533.13;4972432;28;20441;-66
2023/12/26 02:51:38;;;;;;;0.80;0.40;;;;;;;11.02;100.00;99538.88;4960542;28;20427;-67
2023/12/26 02:54:07;;;;;;;0.90;0.40;;;;;;;10.90;100.00;99526.19;4972882;28;20451;-68
2023/12/26 02:56:37;;;;;;;0.80;0.40;;;;;;;11.16;100.00;99526.72;4964571;28;20426;-68
2023/12/26 02:59:08;;;;;;;0.80;0.40;;;;;;;10.90;100.00;99523.47;4960413;28;20464;-65
2023/12/26 03:01:36;;;;;;;0.80;0.40;;;;;;;10.72;100.00;99523.63;4969219;28;20498;-67
2023/12/26 03:04:05;;;;;;;0.80;0.50;;;;;;;10.78;100.00;99519.16;4971947;28;20559;-67
2023/12/26 03:06:34;;;;;;;0.80;0.50;;;;;;;10.47;100.00;99517.63;4970837;28;20466;-68
2023/12/26 03:09:03;;;;;;;0.80;0.50;;;;;;;10.66;100.00;99521.84;4964710;28;20528;-67
2023/12/26 03:11:32;;;;;;;0.80;0.40;;;;;;;10.49;100.00;99515.50;4971408;28;20454;-69
2023/12/26 03:14:03;;;;;;;0.80;0.40;;;;;;;10.63;100.00;99516.91;4967395;28;20475;-66
2023/12/26 03:16:32;;;;;;;0.80;0.40;;;;;;;10.62;100.00;99520.69;4964259;28;20963;-67
2023/12/26 03:19:02;;;;;;;1.47;0.50;;;;;;;10.52;100.00;99515.03;4962441;28;20888;-68
2023/12/26 03:21:31;;;;;;;0.80;0.50;;;;;;;10.68;100.00;99521.63;4965096;28;20432;-67
2023/12/26 03:24:00;;;;;;;0.80;0.50;;;;;;;10.85;100.00;99515.25;4972049;28;21044;-68
2023/12/26 03:26:28;;;;;;;0.80;0.40;;;;;;;10.71;100.00;99503.03;4966856;28;20474;-68
2023/12/26 03:28:57;;;;;;;0.90;0.50;;;;;;;10.64;100.00;99509.63;4972649;28;20449;-66
2023/12/26 03:31:27;;;;;;;0.80;0.40;;;;;;;10.56;100.00;99513.50;4959495;28;20494;-67
2023/12/26 03:33:56;;;;;;;0.80;0.40;;;;;;;10.35;100.00;99516.81;4974331;28;20423;-67
2023/12/26 03:36:25;;;;;;;0.80;0.40;;;;;;;10.22;100.00;99508.88;4966829;28;20453;-66
2023/12/26 03:38:54;;;;;;;0.87;0.60;;;;;;;10.33;100.00;99516.19;4967354;28;20549;-68
2023/12/26 03:41:23;;;;;;;0.80;0.40;;;;;;;10.14;100.00;99518.16;4958283;28;20413;-68
2023/12/26 03:43:52;;;;;;;0.80;0.40;;;;;;;10.25;100.00;99516.56;4970073;28;20440;-67
2023/12/26 03:46:21;;;;;;;0.80;0.40;;;;;;;10.12;100.00;99508.63;4971084;28;20564;-68
2023/12/26 03:48:52;;;;;;;0.80;0.40;;;;;;;10.22;100.00;99507.00;4967323;28;20455;-68
2023/12/26 03:51:21;;;;;;;0.80;0.50;;;;;;;10.29;100.00;99512.31;4962455;28;20434;-67
2023/12/26 03:53:50;;;;;;;0.80;0.40;;;;;;;10.17;100.00;99497.94;4961829;28;20992;-68
2023/12/26 03:56:19;;;;;;;0.80;0.40;;;;;;;10.22;100.00;99506.19;4973393;28;20493;-67
2023/12/26 03:58:47;;;;;;;0.80;0.40;;;;;;;11.01;100.00;99502.88;4970380;28;20460;-67
2023/12/26 04:01:16;;;;;;;1.00;0.40;;;;;;;11.00;100.00;99505.81;4967457;28;20446;-67
2023/12/26 04:03:46;;;;;;;1.30;0.50;;;;;;;10.72;100.00;99507.38;4962188;28;20494;-68
2023/12/26 04:06:16;;;;;;;1.27;1.17;;;;;;;10.65;100.00;99508.56;4959430;28;20438;-68
2023/12/26 04:08:46;;;;;;;0.80;0.50;;;;;;;10.82;100.00;99510.31;4967484;28;20446;-67
2023/12/26 04:11:14;;;;;;;0.90;0.63;;;;;;;11.38;100.00;99514.19;4985933;28;20790;-68
2023/12/26 04:13:44;;;;;;;0.80;0.40;;;;;;;11.26;100.00;99510.69;4969175;28;20495;-66
2023/12/26 04:16:13;;;;;;;0.80;0.40;;;;;;;11.00;100.00;99524.75;4971597;28;20452;-68
2023/12/26 04:18:43;;;;;;;0.80;0.40;;;;;;;10.79;100.00;99521.63;4973689;28;20449;-68
2023/12/26 04:21:12;;;;;;;0.80;0.50;;;;;;;10.78;100.00;99511.84;4973639;28;20442;-68
2023/12/26 04:23:43;;;;;;;0.80;0.50;;;;;;;11.02;100.00;99515.34;4959279;28;20439;-67
2023/12/26 04:26:12;;;;;;;0.83;0.43;;;;;;;11.19;100.00;99526.25;4967668;28;20604;-68
2023/12/26 04:28:41;;;;;;;4.10;0.50;;;;;;;10.93;100.00;99516.78;4968504;28;20423;-67
2023/12/26 04:31:09;;;;;;;0.80;0.40;;;;;;;11.18;100.00;99521.91;4970473;28;20431;-68
2023/12/26 04:33:39;;;;;;;0.80;0.40;;;;;;;11.50;100.00;99528.53;4965134;28;20418;-68
2023/12/26 04:36:08;;;;;;;1.10;0.50;;;;;;;11.64;100.00;99535.28;4965106;28;20512;-68
2023/12/26 04:38:37;;;;;;;0.80;0.40;;;;;;;11.01;100.00;99537.22;4972889;28;20491;-68
2023/12/26 04:41:12;;;;;;;0.90;0.50;;;;;;;11.22;100.00;99525.78;4969453;28;20443;-68
2023/12/26 04:43:41;;;;;;;0.80;0.40;;;;;;;11.19;100.00;99531.66;4972745;28;20999;-68
2023/12/26 04:46:17;;;;;;;0.80;0.50;;;;;;;11.12;100.00;99533.69;4964762;28;20448;-67
2023/12/26 04:48:47;;;;;;;0.80;0.40;;;;;;;10.98;100.00;99530.44;4972070;28;20591;-68
2023/12/26 04:51:17;;;;;;;1.10;0.40;;;;;;;10.96;100.00;99537.13;4972912;28;20513;-67
2023/12/26 04:53:46;;;;;;;0.80;0.50;;;;;;;10.97;100.00;99536.06;4977671;28;20455;-67
2023/12/26 04:56:18;;;;;;;1.17;1.07;;;;;;;11.10;100.00;99543.91;4978659;28;20515;-67
2023/12/26 04:58:49;;;;;;;1.20;0.50;;;;;;;10.97;100.00;99555.00;4960064;28;20554;-68
2023/12/26 05:01:19;;;;;;;0.80;0.50;;;;;;;11.46;100.00;99549.03;4966933;28;20828;-67
2023/12/26 05:03:49;;;;;;;0.80;0.40;;;;;;;11.39;100.00;99556.47;4964244;28;20546;-67
2023/12/26 05:06:20;;;;;;;0.80;0.40;;;;;;;11.22;100.00;99553.69;4972496;28;20474;-67
2023/12/26 05:08:49;;;;;;;0.80;0.40;;;;;;;10.95;100.00;99551.72;4963524;28;21047;-68
2023/12/26 05:11:24;;;;;;;0.80;0.50;;;;;;;11.13;100.00;99551.59;4969923;28;20501;-68
2023/12/26 05:13:53;;;;;;;0.80;0.40;;;;;;;11.07;100.00;99547.94;4965470;28;20990;-67
2023/12/26 05:16:22;;;;;;;0.90;0.50;;;;;;;10.64;100.00;99547.50;4966058;28;20870;-68
2023/12/26 05:18:51;;;;;;;0.90;0.50;;;;;;;11.25;100.00;99549.66;4970609;28;20868;-68
2023/12/26 05:21:22;;;;;;;2.10;0.50;;;;;;;10.98;100.00;99553.97;4964855;28;20484;-68
2023/12/26 05:23:51;;;;;;;0.80;0.50;;;;;;;10.77;100.00;99556.19;4969574;28;20451;-68
2023/12/26 05:26:22;;;;;;;0.80;0.40;;;;;;;10.75;100.00;99558.31;4972098;28;20482;-67
2023/12/26 05:28:51;;;;;;;0.90;0.50;;;;;;;10.76;100.00;99548.31;4963025;28;20447;-68
2023/12/26 05:31:20;;;;;;;0.80;0.50;;;;;;;10.79;100.00;99562.22;4965908;28;20444;-67
2023/12/26 05:33:50;;;;;;;0.80;0.50;;;;;;;10.94;100.00;99574.44;4969609;28;20828;-66
2023/12/26 05:36:19;;;;;;;2.13;0.80;;;;;;;11.23;100.00;99571.56;4971833;28;20454;-68
2023/12/26 05:38:48;;;;;;;3.53;0.60;;;;;;;10.95;100.00;99570.66;4973594;28;20438;-65
2023/12/26 05:41:17;;;;;;;0.90;0.50;;;;;;;10.50;100.00;99568.56;4955782;28;20888;-68
2023/12/26 05:43:47;;;;;;;0.80;0.50;;;;;;;10.56;100.00;99564.06;4967896;28;20454;-68
2023/12/26 05:46:17;;;;;;;0.80;0.60;;;;;;;10.57;100.00;99577.38;4972046;28;20999;-68
2023/12/26 05:48:46;;;;;;;0.90;0.50;;;;;;;10.77;100.00;99579.72;4971499;28;20434;-69
2023/12/26 05:51:15;;;;;;;0.80;0.50;;;;;;;11.04;100.00;99582.75;4965177;28;20802;-67
2023/12/26 05:53:44;;;;;;;0.80;0.50;;;;;;;10.59;100.00;99591.50;4963919;28;20971;-67
2023/12/26 05:56:13;;;;;;;0.80;0.50;;;;;;;10.74;100.00;99583.75;4971660;28;20441;-68
2023/12/26 05:58:42;;;;;;;1.00;0.70;;;;;;;10.57;100.00;99596.28;4961503;28;20419;-67
2023/12/26 06:01:13;;;;;;;0.90;0.53;;;;;;;10.77;100.00;99596.78;4955175;28;20402;-67
2023/12/26 06:03:42;;;;;;;0.93;0.57;;;;;;;10.68;100.00;99606.31;4969201;28;20470;-67
2023/12/26 06:06:12;;;;;;;0.80;0.50;;;;;;;10.61;100.00;99605.59;4963670;28;20533;-67
2023/12/26 06:08:42;;;;;;;1.37;0.50;;;;;;;10.97;100.00;99603.72;4965627;28;20430;-67
2023/12/26 06:11:11;;;;;;;0.80;0.40;;;;;;;10.76;100.00;99605.13;4959865;28;20422;-67
2023/12/26 06:13:41;;;;;;;0.80;0.40;;;;;;;10.46;100.00;99602.50;4967115;28;20542;-67
2023/12/26 06:16:10;;;;;;;0.80;0.40;;;;;;;10.36;100.00;99608.47;4964476;28;20453;-67
2023/12/26 06:18:41;;;;;;;0.80;0.47;;;;;;;10.75;100.00;99614.31;4970249;28;20968;-69
2023/12/26 06:21:11;;;;;;;0.80;0.50;;;;;;;10.33;100.00;99627.88;4975898;28;20456;-67
2023/12/26 06:23:40;;;;;;;0.80;0.40;;;;;;;10.20;100.00;99629.97;4976308;28;20491;-67
2023/12/26 06:26:10;;;;;;;1.10;0.50;;;;;;;10.08;100.00;99631.75;4975724;28;20441;-69
2023/12/26 06:28:39;;;;;;;1.00;0.50;;;;;;;10.06;100.00;99633.88;4975635;28;20470;-65
2023/12/26 06:31:14;;;;;;;0.80;0.40;;;;;;;10.07;100.00;99643.66;4969169;28;20811;-66
2023/12/26 06:33:45;;;;;;;0.80;0.50;;;;;;;10.47;100.00;99642.03;4981825;28;20452;-68
2023/12/26 06:36:14;;;;;;;0.90;0.50;;;;;;;10.44;100.00;99647.91;4957095;28;20434;-67
2023/12/26 06:38:44;;;;;;;0.80;0.40;;;;;;;10.76;100.00;99651.97;4965334;28;20954;-67
2023/12/26 06:41:14;;;;;;;0.80;0.40;;;;;;;10.39;100.00;99658.59;4962998;28;20468;-67
2023/12/26 06:43:43;;;;;;;0.80;0.50;;;;;;;10.23;100.00;99660.06;4962844;28;20490;-68
2023/12/26 06:46:12;;;;;;;0.80;0.40;;;;;;;10.20;100.00;99651.59;4964372;28;20509;-67
2023/12/26 06:48:42;;;;;;;0.80;0.40;;;;;;;10.49;100.00;99642.63;4967055;28;20512;-67
2023/12/26 06:51:15;;;;;;;1.00;0.60;;;;;;;10.52;100.00;99644.84;4974467;28;20450;-66
2023/12/26 06:53:44;;;;;;;0.80;0.43;;;;;;;10.42;100.00;99639.19;4972010;28;20505;-68
2023/12/26 06:56:13;;;;;;;0.80;0.40;;;;;;;10.33;100.00;99654.09;4965360;28;20467;-67
2023/12/26 06:58:42;;;;;;;0.80;0.40;;;;;;;10.27;100.00;99655.00;4970083;28;20447;-67
2023/12/26 07:01:13;;;;;;;0.90;0.47;;;;;;;10.44;100.00;99635.22;4976004;28;20504;-65
2023/12/26 07:03:45;;;;;;;0.80;0.40;;;;;;;10.17;100.00;99652.03;4970263;28;20488;-68
2023/12/26 07:06:15;;;;;;;0.80;0.40;;;;;;;10.32;100.00;99671.38;4979002;28;20827;-67
2023/12/26 07:08:46;;;;;;;0.80;0.40;;;;;;;10.31;100.00;99691.38;4975698;28;20505;-68
2023/12/26 07:11:15;;;;;;;0.80;0.50;;;;;;;10.21;100.00;99683.81;4975874;28;20471;-66
2023/12/26 07:13:44;;;;;;;0.80;0.40;;;;;;;10.13;100.00;99707.56;4968552;28;20439;-67
2023/12/26 07:16:12;;;;;;;0.80;0.40;;;;;;;10.33;100.00;99705.47;4964045;28;20454;-64
2023/12/26 07:18:41;;;;;;;0.80;0.40;;;;;;;10.44;100.00;99718.22;4974926;28;20439;-66
2023/12/26 07:21:10;;;;;;;0.80;0.40;;;;;;;10.27;100.00;99717.19;4967174;28;20431;-68
2023/12/26 07:23:42;;;;;;;2.10;0.63;;;;;;;10.43;100.00;99727.38;4972574;28;20445;-67
2023/12/26 07:26:11;;;;;;;1.50;0.50;;;;;;;9.99;100.00;99733.94;4976748;28;20968;-68
2023/12/26 07:28:40;;;;;;;0.80;0.40;;;;;;;10.44;100.00;99737.16;4976291;28;20456;-68
2023/12/26 07:31:09;;;;;;;1.10;0.40;;;;;;;10.40;100.00;99738.66;4971446;28;20414;-69
2023/12/26 07:33:39;;;;;;;0.80;0.50;;;;;;;10.04;100.00;99745.75;4973375;28;20946;-67
2023/12/26 07:36:11;;;;;;;0.80;0.40;;;;;;;10.08;100.00;99746.09;4971625;28;20517;-68
2023/12/26 07:38:42;;;;;;;7.80;0.60;;;;;;;10.03;100.00;99749.50;4974604;28;20452;-68
2023/12/26 07:41:11;;;;;;;0.80;0.40;;;;;;;9.86;100.00;99759.25;4966849;28;20412;-68
2023/12/26 07:43:40;;;;;;;0.90;0.50;;;;;;;9.64;100.00;99765.31;4970789;28;20409;-67
2023/12/26 07:46:08;;;;;;;1.00;0.63;;;;;;;9.71;100.00;99766.91;4972327;28;20527;-67
2023/12/26 07:48:37;;;;;;;0.80;0.50;;;;;;;9.68;100.00;99778.16;4971713;28;20990;-68
2023/12/26 07:51:09;;;;;;;0.80;0.50;;;;;;;9.76;100.00;99785.16;4971805;28;20776;-67
2023/12/26 07:53:38;;;;;;;0.90;0.50;;;;;;;9.94;100.00;99791.38;4965239;28;20469;-67
2023/12/26 07:56:08;;;;;;;0.80;0.50;;;;;;;10.09;100.00;99809.09;4965983;28;20885;-67
2023/12/26 07:58:38;;;;;;;0.80;0.40;;;;;;;10.19;100.00;99801.31;4964352;28;20423;-66
2023/12/26 08:01:07;;;;;;;0.90;0.50;;;;;;;10.13;100.00;99818.41;4973574;28;20442;-67
2023/12/26 08:03:35;;;;;;;0.80;0.40;;;;;;;10.02;100.00;99812.69;4962712;28;20439;-67
2023/12/26 08:06:05;;;;;;;0.80;0.50;;;;;;;9.92;100.00;99817.78;4972768;28;20811;-67
2023/12/26 08:08:34;;;;;;;1.10;0.50;;;;;;;10.16;100.00;99818.84;4974679;28;20893;-67
2023/12/26 08:11:03;;;;;;;1.00;0.53;;;;;;;10.07;100.00;99822.03;4971112;28;20417;-67
2023/12/26 08:13:33;;;;;;;1.40;0.70;;;;;;;10.36;100.00;99835.63;4969428;28;20443;-67
2023/12/26 08:16:04;;;;;;;1.03;0.63;;;;;;;10.45;100.00;99838.88;4967138;28;20556;-67
2023/12/26 08:18:33;;;;;;;0.80;0.50;;;;;;;10.36;100.00;99845.66;4971654;28;20427;-68
2023/12/26 08:21:03;;;;;;;0.80;0.50;;;;;;;10.36;100.00;99856.47;4975397;28;20501;-67
2023/12/26 08:23:35;;;;;;;1.03;0.63;;;;;;;10.11;100.00;99831.34;4970706;28;20467;-67
2023/12/26 08:26:06;;;;;;;0.90;0.50;;;;;;;10.08;100.00;99861.50;4973141;28;20466;-68
2023/12/26 08:28:36;;;;;;;0.80;0.50;;;;;;;10.24;100.00;99858.25;4968004;28;20486;-68
2023/12/26 08:31:05;;;;;;;0.90;0.50;;;;;;;10.21;100.00;99864.13;4971100;28;20445;-68
2023/12/26 08:33:35;;;;;;;0.80;0.40;;;;;;;9.95;100.00;99860.59;4968495;28;20434;-68
2023/12/26 08:36:05;;;;;;;1.30;0.63;;;;;;;10.23;100.00;99875.53;4964590;28;20458;-67
2023/12/26 08:38:34;;;;;;;1.10;0.50;;;;;;;9.91;100.00;99874.78;4969561;28;20413;-68
2023/12/26 08:41:02;;;;;;;0.80;0.50;;;;;;;9.88;100.00;99888.72;4973641;28;20848;-67
2023/12/26 08:43:32;;;;;;;1.00;0.50;;;;;;;10.21;100.00;99891.16;4973466;28;20446;-67
2023/12/26 08:46:02;;;;;;;0.80;0.50;;;;;;;10.19;100.00;99909.47;4972749;28;20792;-66
2023/12/26 08:48:31;;;;;;;0.90;0.50;;;;;;;10.08;100.00;99912.84;4972303;28;20477;-67
2023/12/26 08:51:00;;;;;;;2.10;0.50;;;;;;;10.21;100.00;99913.63;4969312;28;20449;-66
2023/12/26 08:53:29;;;;;;;0.80;0.50;;;;;;;10.17;100.00;99930.47;4973380;28;20456;-68
2023/12/26 08:55:58;;;;;;;2.30;0.50;;;;;;;10.16;100.00;99916.16;4973458;28;20639;-67
2023/12/26 08:58:29;;;;;;;1.00;0.53;;;;;;;10.23;100.00;99921.47;4959079;28;20435;-68
2023/12/26 09:00:58;;;;;;;0.80;0.50;;;;;;;10.10;100.00;99917.00;4970769;28;20420;-68
2023/12/26 09:03:28;;;;;;;0.90;0.50;;;;;;;9.96;100.00;99910.06;4974348;28;20434;-67
2023/12/26 09:05:58;;;;;;;3.10;1.10;;;;;;;9.91;100.00;99918.84;4966293;28;20451;-67
2023/12/26 09:08:26;;;;;;;1.98;0.65;;;;;;;10.17;100.00;99933.19;4973318;28;20889;-67
2023/12/26 09:10:55;;;;;;;1.23;0.60;;;;;;;10.03;100.00;99930.56;4973211;28;20198;-67
2023/12/26 09:13:26;;;;;;;7.37;0.77;;;;;;;9.89;100.00;99947.13;4972575;28;20430;-68
2023/12/26 09:15:55;;;;;;;2.17;0.53;;;;;;;9.81;100.00;99945.53;4966515;28;20535;-67
2023/12/26 09:18:24;;;;;;;1.30;0.60;;;;;;;9.97;100.00;99946.88;4971601;28;20939;-68
2023/12/26 09:20:55;;;;;;;1.10;0.60;;;;;;;9.94;100.00;99956.22;4958583;28;20442;-67
2023/12/26 09:23:24;;;;;;;1.87;0.77;;;;;;;10.04;100.00;99971.94;4963380;28;20435;-68
2023/12/26 09:25:53;;;;;;;2.00;0.77;;;;;;;9.96;100.00;99964.97;4961952;28;20437;-68
2023/12/26 09:28:22;;;;;;;1.30;0.70;;;;;;;10.18;100.00;99961.88;4969332;28;20836;-67
2023/12/26 09:30:51;;;;;;;1.17;0.70;;;;;;;10.47;100.00;99972.00;4954977;28;20425;-68
2023/12/26 09:33:20;;;;;;;1.13;0.60;;;;;;;10.17;100.00;99968.31;4968849;28;20537;-68
2023/12/26 09:35:49;;;;;;;0.90;0.60;;;;;;;10.26;100.00;99969.72;4970677;28;20553;-69
2023/12/26 09:38:19;;;;;;;3.67;0.80;;;;;;;10.09;100.00;99982.09;4973852;28;20469;-68
2023/12/26 09:40:49;;;;;;;1.17;0.70;;;;;;;9.93;100.00;99981.59;4977209;28;20431;-68
2023/12/26 09:43:18;;;;;;;1.77;0.90;;;;;;;10.11;100.00;99978.16;4971757;28;20427;-69
2023/12/26 09:45:48;;;;;;;4.90;1.38;;;;;;;9.96;100.00;99980.34;4973773;28;20430;-68
2023/12/26 09:48:17;;;;;;;0.90;0.50;;;;;;;10.51;100.00;99997.53;4975457;28;20200;-66
2023/12/26 09:50:48;;;;;;;0.90;0.57;;;;;;;10.53;97.73;99997.31;4973572;28;20435;-67
2023/12/26 09:53:23;;;;;;;1.00;0.80;;;;;;;10.44;97.29;99994.91;4962856;28;20970;-68
2023/12/26 09:55:53;;;;;;;0.80;0.50;;;;;;;10.72;96.74;99980.88;4973907;28;20424;-68
2023/12/26 09:58:23;;;;;;;1.20;0.70;;;;;;;10.69;95.70;99997.56;4964104;28;20426;-67
2023/12/26 10:00:53;;;;;;;1.43;1.00;;;;;;;10.85;95.46;100005.09;4972494;28;20510;-68
2023/12/26 10:03:24;;;;;;;1.20;0.60;;;;;;;10.72;96.19;100007.94;4965012;28;20410;-68
2023/12/26 10:05:57;;;;;;;2.70;0.70;;;;;;;11.04;93.70;100011.31;4968535;28;21019;-69
2023/12/26 10:08:28;;;;;;;2.50;0.90;;;;;;;10.90;92.57;100015.22;4968561;28;20502;-68
2023/12/26 10:10:57;;;;;;;1.57;0.63;;;;;;;10.51;92.68;100015.63;4970053;28;20464;-66
2023/12/26 10:13:27;;;;;;;1.27;0.73;;;;;;;10.54;93.17;100031.44;4975774;28;20492;-69
2023/12/26 10:15:56;;;;;;;3.20;0.70;;;;;;;10.41;92.64;100032.38;4977270;28;20422;-66
2023/12/26 10:18:27;;;;;;;1.23;0.60;;;;;;;10.38;93.00;100046.34;4966192;28;20431;-70
2023/12/26 10:20:56;;;;;;;0.90;0.60;;;;;;;10.21;90.73;100046.09;4977049;28;20431;-65
2023/12/26 10:23:27;;;;;;;1.30;0.67;;;;;;;10.20;91.55;100043.59;4966163;28;20446;-68
2023/12/26 10:25:57;;;;;;;2.13;1.13;;;;;;;10.18;89.37;100048.38;4971829;28;20477;-66
2023/12/26 10:28:26;;;;;;;1.10;0.70;;;;;;;10.29;89.29;100048.50;4967106;28;20417;-68
2023/12/26 10:30:55;;;;;;;2.57;0.67;;;;;;;10.38;89.13;100052.59;4968550;28;20794;-68
2023/12/26 10:33:26;;;;;;;2.83;0.60;;;;;;;10.19;89.18;100042.78;4959047;28;20933;-68
2023/12/26 10:36:06;;;;;;;3.53;1.00;;;;;;;10.51;89.77;100054.34;4973599;28;20985;-68
2023/12/26 10:38:36;;;;;;;1.80;1.43;;;;;;;10.74;88.86;100064.56;4970764;28;20434;-68
2023/12/26 10:41:08;;;;;;;1.10;0.50;;;;;;;11.04;87.95;100064.63;4976137;28;20405;-68
2023/12/26 10:43:40;;;;;;;0.90;0.60;;;;;;;11.14;85.79;100070.34;4977047;28;20426;-67
2023/12/26 10:46:09;;;;;;;0.97;0.50;;;;;;;10.91;86.13;100073.72;4973878;28;20804;-69
2023/12/26 10:48:42;;;;;;;1.93;1.77;;;;;;;11.18;85.57;100082.41;4965043;28;20466;-67
2023/12/26 10:51:11;;;;;;;2.90;0.83;;;;;;;10.83;85.29;100074.03;4961665;28;20409;-68
2023/12/26 10:53:54;;;;;;;3.00;0.90;;;;;;;11.01;85.11;100093.00;4969243;28;20480;-69
2023/12/26 10:56:24;;;;;;;2.23;0.60;;;;;;;10.85;83.99;100101.69;4967786;28;20522;-68
2023/12/26 10:58:54;;;;;;;2.27;1.03;;;;;;;10.68;84.14;100090.63;4975602;28;20486;-69
2023/12/26 13:52:51;;;;;;;0.80;0.50;;;;;;;10.35;66.55;100255.88;4965396;28;20443;-65
2023/12/26 13:55:57;;;;;;;2.00;1.00;;;;;;;10.14;66.82;100260.72;4971457;28;21049;-66
2023/12/26 13:59:03;;;;;;;2.10;0.70;;;;;;;10.29;65.85;100278.38;4966094;28;20434;-64
2023/12/26 14:02:09;;;;;;;1.03;0.80;;;;;;;10.26;67.33;100277.97;4963146;28;20401;-64
2023/12/26 14:05:15;;;;;;;1.00;0.60;;;;;;;10.37;69.86;100275.41;4960028;28;20430;-64
2023/12/26 14:08:22;;;;;;;1.60;0.70;;;;;;;10.55;70.64;100282.00;4970119;28;20425;-65
2023/12/26 14:11:28;;;;;;;1.47;1.37;;;;;;;10.36;68.02;100283.75;4965362;28;20472;-65
2023/12/26 14:14:34;;;;;;;1.23;0.60;;;;;;;10.31;67.75;100295.19;4960412;28;20435;-62
2023/12/26 14:17:40;;;;;;;2.70;0.73;;;;;;;10.16;67.05;100299.22;4969324;28;20482;-64
2023/12/26 14:20:46;;;;;;;1.00;0.70;;;;;;;10.45;69.14;100313.03;4963677;28;20794;-65
2023/12/26 14:23:16;;;;;;;1.53;0.77;;;;;;;10.11;67.49;100307.13;4961113;28;20497;-64
2023/12/26 14:25:45;;;;;;;1.10;0.60;;;;;;;10.09;68.06;100320.00;4965556;28;20462;-65
2023/12/26 14:28:15;;;;;;;0.90;0.60;;;;;;;10.01;67.09;100323.78;4975532;28;20530;-65
2023/12/26 14:30:45;;;;;;;0.80;0.50;;;;;;;10.09;68.53;100320.84;4969214;28;20429;-65
2023/12/26 14:33:19;;;;;;;10.73;0.90;;;;;;;9.61;67.86;100317.63;4969582;28;20760;-65
2023/12/26 14:35:49;;;;;;;1.23;0.60;;;;;;;9.80;69.76;100332.97;4964162;28;20421;-65